createdAt,value
2023-03-16T00:00:04.021Z,4.28
2023-03-16T00:01:04.236Z,4.38
2023-03-16T00:02:05.139Z,4.38
2023-03-16T00:03:05.864Z,4.25
2023-03-16T00:04:06.216Z,4.34
2023-03-16T00:05:06.795Z,4.31
2023-03-16T00:06:06.998Z,4.22
2023-03-16T00:07:07.657Z,4.27
2023-03-16T00:08:07.872Z,4.3
2023-03-16T00:09:08.511Z,4.28
2023-03-16T00:10:09.704Z,4.3
2023-03-16T00:11:10.366Z,4.22
2023-03-16T00:12:11.451Z,4.32
2023-03-16T00:13:12.669Z,4.32
2023-03-16T00:14:12.934Z,4.28
2023-03-16T00:15:12.956Z,4.28
2023-03-16T00:16:13.603Z,4.32
2023-03-16T00:17:14.097Z,4.31
2023-03-16T00:18:14.180Z,4.25
2023-03-16T00:19:14.705Z,4.27
2023-03-16T00:20:15.212Z,4.22
2023-03-16T00:21:15.865Z,4.3
2023-03-16T00:22:16.198Z,4.34
2023-03-16T00:23:16.508Z,4.16
2023-03-16T00:24:17.228Z,4.16
2023-03-16T00:25:16.907Z,4.22
2023-03-16T00:26:17.835Z,4.2
2023-03-16T00:27:18.784Z,4.14
2023-03-16T00:28:19.279Z,4.18
2023-03-16T00:29:19.226Z,4.25
2023-03-16T00:30:20.481Z,4.16
2023-03-16T00:31:21.107Z,4.13
2023-03-16T00:32:21.637Z,4.1
2023-03-16T00:33:21.937Z,4.14
2023-03-16T00:34:22.190Z,4.09
2023-03-16T00:35:22.452Z,3.99
2023-03-16T00:36:22.686Z,4.06
2023-03-16T00:37:24.116Z,4.02
2023-03-16T00:38:24.367Z,4
2023-03-16T00:39:24.161Z,4
2023-03-16T00:40:25.985Z,3.94
2023-03-16T00:41:25.595Z,3.92
2023-03-16T00:42:26.493Z,3.88
2023-03-16T00:43:26.418Z,3.78
2023-03-16T00:44:27.336Z,3.86
2023-03-16T00:45:28.569Z,3.94
2023-03-16T00:46:28.630Z,3.86
2023-03-16T00:47:29.888Z,3.89
2023-03-16T00:48:30.444Z,3.88
2023-03-16T00:49:30.684Z,3.95
2023-03-16T00:50:31.477Z,3.88
2023-03-16T00:51:31.970Z,3.91
2023-03-16T00:52:32.119Z,3.95
2023-03-16T00:53:33.452Z,3.95
2023-03-16T00:54:33.812Z,3.95
2023-03-16T00:55:34.737Z,3.99
2023-03-16T00:56:35.941Z,3.94
2023-03-16T00:57:36.458Z,3.94
2023-03-16T00:58:36.691Z,3.91
2023-03-16T00:59:37.715Z,3.94
2023-03-16T01:00:38.404Z,3.91
2023-03-16T01:01:38.865Z,3.92
2023-03-16T01:02:39.521Z,3.91
2023-03-16T01:03:40.604Z,3.86
2023-03-16T01:04:40.842Z,3.81
2023-03-16T01:05:41.397Z,3.88
2023-03-16T01:06:45.414Z,3.7
2023-03-16T01:07:42.327Z,3.74
2023-03-16T01:08:43.543Z,3.81
2023-03-16T01:09:43.766Z,3.68
2023-03-16T01:10:44.425Z,3.74
2023-03-16T01:11:45.640Z,3.7
2023-03-16T01:12:45.739Z,3.71
2023-03-16T01:13:45.956Z,3.67
2023-03-16T01:14:46.731Z,3.77
2023-03-16T01:15:46.678Z,3.78
2023-03-16T01:16:48.054Z,3.74
2023-03-16T01:17:48.128Z,3.7
2023-03-16T01:18:48.360Z,3.67
2023-03-16T01:19:48.628Z,3.71
2023-03-16T01:20:49.156Z,3.67
2023-03-16T01:21:49.369Z,3.66
2023-03-16T01:22:50.023Z,3.71
2023-03-16T01:23:50.421Z,3.7
2023-03-16T01:24:50.922Z,3.7
2023-03-16T01:25:51.560Z,3.7
2023-03-16T01:26:52.581Z,3.61
2023-03-16T01:27:52.223Z,3.68
2023-03-16T01:28:52.891Z,3.66
2023-03-16T01:29:53.881Z,3.59
2023-03-16T01:30:54.254Z,3.61
2023-03-16T01:31:54.690Z,3.56
2023-03-16T01:32:55.179Z,3.48
2023-03-16T01:33:55.577Z,3.55
2023-03-16T01:34:55.832Z,3.63
2023-03-16T01:35:56.514Z,3.56
2023-03-16T01:36:56.696Z,3.37
2023-03-16T01:37:57.608Z,3.46
2023-03-16T01:38:58.533Z,3.46
2023-03-16T01:39:58.883Z,3.31
2023-03-16T01:40:59.812Z,3.37
2023-03-16T01:42:00.039Z,3.21
2023-03-16T01:43:01.092Z,3.15
2023-03-16T01:44:01.769Z,3.12
2023-03-16T01:45:02.183Z,3.12
2023-03-16T01:46:03.349Z,3.13
2023-03-16T01:47:03.443Z,3.21
2023-03-16T01:48:04.792Z,3.12
2023-03-16T01:49:05.014Z,3.09
2023-03-16T01:50:05.673Z,3.09
2023-03-16T01:51:06.561Z,3.08
2023-03-16T01:52:06.484Z,3.08
2023-03-16T01:53:07.046Z,3.05
2023-03-16T01:54:07.536Z,3.03
2023-03-16T01:55:07.485Z,3.12
2023-03-16T01:56:08.426Z,3.09
2023-03-16T01:57:09.073Z,3.12
2023-03-16T01:58:10.322Z,3.08
2023-03-16T01:59:10.993Z,3
2023-03-16T02:00:11.614Z,3.11
2023-03-16T02:01:12.367Z,3.09
2023-03-16T02:02:12.519Z,3
2023-03-16T02:03:13.758Z,3.03
2023-03-16T02:04:15.279Z,3.06
2023-03-16T02:05:14.791Z,3.11
2023-03-16T02:06:15.824Z,3.08
2023-03-16T02:07:17.056Z,3.05
2023-03-16T02:08:17.296Z,3.03
2023-03-16T02:09:17.498Z,2.91
2023-03-16T02:10:18.431Z,2.9
2023-03-16T02:11:18.835Z,2.91
2023-03-16T02:12:20.355Z,2.82
2023-03-16T02:13:20.965Z,2.94
2023-03-16T02:14:21.156Z,2.91
2023-03-16T02:15:21.776Z,2.87
2023-03-16T02:16:21.787Z,2.85
2023-03-16T02:17:22.013Z,2.87
2023-03-16T02:18:23.080Z,2.82
2023-03-16T02:19:23.040Z,2.75
2023-03-16T02:20:24.317Z,2.75
2023-03-16T02:21:24.521Z,2.64
2023-03-16T02:22:25.223Z,2.73
2023-03-16T02:23:25.560Z,2.68
2023-03-16T02:24:25.666Z,2.7
2023-03-16T02:25:25.859Z,2.72
2023-03-16T02:26:26.072Z,2.75
2023-03-16T02:27:27.293Z,2.76
2023-03-16T02:28:27.781Z,2.72
2023-03-16T02:29:27.982Z,2.73
2023-03-16T02:30:29.761Z,2.68
2023-03-16T02:31:29.703Z,2.73
2023-03-16T02:32:30.016Z,2.73
2023-03-16T02:33:30.233Z,2.68
2023-03-16T02:34:30.455Z,2.68
2023-03-16T02:35:30.314Z,2.7
2023-03-16T02:36:30.797Z,2.7
2023-03-16T02:37:31.168Z,2.75
2023-03-16T02:38:31.141Z,2.68
2023-03-16T02:39:32.090Z,2.65
2023-03-16T02:40:32.573Z,2.7
2023-03-16T02:41:32.818Z,2.69
2023-03-16T02:42:34.066Z,2.69
2023-03-16T02:43:33.971Z,2.7
2023-03-16T02:44:34.965Z,2.68
2023-03-16T02:45:35.181Z,2.68
2023-03-16T02:46:35.916Z,2.58
2023-03-16T02:47:36.492Z,2.52
2023-03-16T02:48:37.017Z,2.55
2023-03-16T02:49:37.122Z,2.51
2023-03-16T02:50:37.077Z,2.51
2023-03-16T02:51:37.298Z,2.46
2023-03-16T02:52:38.522Z,2.41
2023-03-16T02:53:39.524Z,2.46
2023-03-16T02:54:39.928Z,2.46
2023-03-16T02:55:41.409Z,2.46
2023-03-16T02:56:41.907Z,2.43
2023-03-16T02:57:42.423Z,2.43
2023-03-16T02:58:42.919Z,2.47
2023-03-16T02:59:43.398Z,2.44
2023-03-16T03:00:44.325Z,2.39
2023-03-16T03:01:44.840Z,2.44
2023-03-16T03:02:45.189Z,2.33
2023-03-16T03:03:45.869Z,2.37
2023-03-16T03:04:45.589Z,2.34
2023-03-16T03:05:46.838Z,2.26
2023-03-16T03:06:47.110Z,2.28
2023-03-16T03:07:48.329Z,2.34
2023-03-16T03:08:48.815Z,2.32
2023-03-16T03:09:49.028Z,2.25
2023-03-16T03:10:49.547Z,2.26
2023-03-16T03:11:49.284Z,2.28
2023-03-16T03:12:50.774Z,2.37
2023-03-16T03:13:51.109Z,2.34
2023-03-16T03:14:51.606Z,2.28
2023-03-16T03:15:51.613Z,2.39
2023-03-16T03:16:52.198Z,2.33
2023-03-16T03:17:52.704Z,2.34
2023-03-16T03:18:53.263Z,2.36
2023-03-16T03:19:52.897Z,2.34
2023-03-16T03:20:53.902Z,2.43
2023-03-16T03:21:54.153Z,2.4
2023-03-16T03:22:55.093Z,2.36
2023-03-16T03:23:55.425Z,2.33
2023-03-16T03:24:56.358Z,2.39
2023-03-16T03:25:56.298Z,2.33
2023-03-16T03:26:56.897Z,2.34
2023-03-16T03:27:57.803Z,2.34
2023-03-16T03:28:58.019Z,2.46
2023-03-16T03:29:59.282Z,2.44
2023-03-16T03:30:59.780Z,2.4
2023-03-16T03:32:00.320Z,2.34
2023-03-16T03:33:01.384Z,2.4
2023-03-16T03:34:01.828Z,2.37
2023-03-16T03:35:02.764Z,2.39
2023-03-16T03:36:03.545Z,2.37
2023-03-16T03:37:03.935Z,2.32
2023-03-16T03:38:04.436Z,2.23
2023-03-16T03:39:04.985Z,2.28
2023-03-16T03:40:04.980Z,2.33
2023-03-16T03:41:05.522Z,2.26
2023-03-16T03:42:05.859Z,2.21
2023-03-16T03:43:06.064Z,2.28
2023-03-16T03:44:07.109Z,2.36
2023-03-16T03:45:07.394Z,2.23
2023-03-16T03:46:08.526Z,2.22
2023-03-16T03:47:08.757Z,2.23
2023-03-16T03:48:09.255Z,2.21
2023-03-16T03:49:10.790Z,2.34
2023-03-16T03:50:11.160Z,2.23
2023-03-16T03:51:11.692Z,2.25
2023-03-16T03:52:12.225Z,2.22
2023-03-16T03:53:12.453Z,2.25
2023-03-16T03:54:13.163Z,2.21
2023-03-16T03:55:14.092Z,2.33
2023-03-16T03:56:14.578Z,2.22
2023-03-16T03:57:15.494Z,2.25
2023-03-16T03:58:15.772Z,2.33
2023-03-16T03:59:16.695Z,2.33
2023-03-16T04:00:17.717Z,2.36
2023-03-16T04:01:18.531Z,2.25
2023-03-16T04:02:19.214Z,2.26
2023-03-16T04:03:19.514Z,2.22
2023-03-16T04:04:19.409Z,2.22
2023-03-16T04:05:20.431Z,2.25
2023-03-16T04:06:21.373Z,2.21
2023-03-16T04:07:21.927Z,2.22
2023-03-16T04:08:21.844Z,2.19
2023-03-16T04:09:22.200Z,2.28
2023-03-16T04:10:23.406Z,2.21
2023-03-16T04:11:23.685Z,2.21
2023-03-16T04:12:25.087Z,2.16
2023-03-16T04:13:25.303Z,2.15
2023-03-16T04:14:25.312Z,2.22
2023-03-16T04:15:25.550Z,2.16
2023-03-16T04:16:26.582Z,2.19
2023-03-16T04:17:26.930Z,2.25
2023-03-16T04:18:27.179Z,2.22
2023-03-16T04:19:28.110Z,2.25
2023-03-16T04:20:28.601Z,2.33
2023-03-16T04:21:29.014Z,2.36
2023-03-16T04:22:29.246Z,2.33
2023-03-16T04:23:30.160Z,2.34
2023-03-16T04:24:30.210Z,2.26
2023-03-16T04:25:30.422Z,2.26
2023-03-16T04:26:31.671Z,2.25
2023-03-16T04:27:32.589Z,2.37
2023-03-16T04:28:32.540Z,2.33
2023-03-16T04:29:33.465Z,2.28
2023-03-16T04:30:33.999Z,2.28
2023-03-16T04:31:34.090Z,2.25
2023-03-16T04:32:35.144Z,2.22
2023-03-16T04:33:35.214Z,2.22
2023-03-16T04:34:36.262Z,2.14
2023-03-16T04:35:36.351Z,2.12
2023-03-16T04:36:37.467Z,2.15
2023-03-16T04:37:38.003Z,2.16
2023-03-16T04:38:38.201Z,1.97
2023-03-16T04:39:38.553Z,2.05
2023-03-16T04:40:39.914Z,1.98
2023-03-16T04:41:40.435Z,1.97
2023-03-16T04:42:41.076Z,1.95
2023-03-16T04:43:41.572Z,1.98
2023-03-16T04:44:41.902Z,1.95
2023-03-16T04:45:42.419Z,1.93
2023-03-16T04:46:43.041Z,1.92
2023-03-16T04:47:43.301Z,1.82
2023-03-16T04:48:44.229Z,1.85
2023-03-16T04:49:44.489Z,1.82
2023-03-16T04:50:44.710Z,1.89
2023-03-16T04:51:45.647Z,1.89
2023-03-16T04:52:45.911Z,1.79
2023-03-16T04:53:46.394Z,1.85
2023-03-16T04:54:47.090Z,1.84
2023-03-16T04:55:47.577Z,1.78
2023-03-16T04:56:47.942Z,1.86
2023-03-16T04:57:49.136Z,1.86
2023-03-16T04:58:49.802Z,1.85
2023-03-16T04:59:50.742Z,1.88
2023-03-16T05:00:51.934Z,1.85
2023-03-16T05:01:53.178Z,1.85
2023-03-16T05:02:53.224Z,1.86
2023-03-16T05:03:53.855Z,1.88
2023-03-16T05:04:55.218Z,1.88
2023-03-16T05:05:55.672Z,1.93
2023-03-16T05:06:56.539Z,1.95
2023-03-16T05:07:56.806Z,1.95
2023-03-16T05:08:57.024Z,1.92
2023-03-16T05:09:57.978Z,1.97
2023-03-16T05:10:58.927Z,2
2023-03-16T05:11:59.564Z,1.97
2023-03-16T05:13:00.500Z,2
2023-03-16T05:14:01.149Z,2
2023-03-16T05:15:02.155Z,1.95
2023-03-16T05:16:02.605Z,1.95
2023-03-16T05:17:03.036Z,1.95
2023-03-16T05:18:03.658Z,1.95
2023-03-16T05:19:03.859Z,1.98
2023-03-16T05:20:04.387Z,1.97
2023-03-16T05:21:04.711Z,1.93
2023-03-16T05:22:05.641Z,2
2023-03-16T05:23:06.182Z,1.95
2023-03-16T05:24:06.406Z,1.98
2023-03-16T05:25:06.732Z,2
2023-03-16T05:26:07.184Z,1.97
2023-03-16T05:27:07.100Z,2.01
2023-03-16T05:28:08.034Z,1.95
2023-03-16T05:29:08.109Z,2
2023-03-16T05:30:08.608Z,1.95
2023-03-16T05:31:08.663Z,2
2023-03-16T05:32:09.109Z,1.98
2023-03-16T05:33:10.322Z,1.97
2023-03-16T05:34:09.972Z,1.93
2023-03-16T05:35:11.332Z,1.93
2023-03-16T05:36:11.782Z,2
2023-03-16T05:37:11.745Z,1.98
2023-03-16T05:38:13.293Z,2.05
2023-03-16T05:39:13.514Z,1.93
2023-03-16T05:40:13.706Z,2.01
2023-03-16T05:41:14.781Z,2.07
2023-03-16T05:42:15.512Z,2.08
2023-03-16T05:43:16.069Z,2.05
2023-03-16T05:44:15.998Z,2.05
2023-03-16T05:45:17.405Z,1.97
2023-03-16T05:46:21.048Z,2.1
2023-03-16T05:47:18.227Z,2.1
2023-03-16T05:48:18.190Z,2.08
2023-03-16T05:49:18.873Z,2.08
2023-03-16T05:50:20.126Z,2.12
2023-03-16T05:51:20.703Z,2.19
2023-03-16T05:52:21.386Z,2.1
2023-03-16T05:53:21.642Z,2.18
2023-03-16T05:54:22.584Z,2.12
2023-03-16T05:55:23.306Z,2.15
2023-03-16T05:56:24.503Z,2.21
2023-03-16T05:57:24.716Z,2.19
2023-03-16T05:58:24.954Z,2.22
2023-03-16T05:59:26.174Z,2.21
2023-03-16T06:00:27.660Z,2.32
2023-03-16T06:01:28.095Z,2.28
2023-03-16T06:02:28.097Z,2.28
2023-03-16T06:03:29.173Z,2.33
2023-03-16T06:04:29.547Z,2.3
2023-03-16T06:05:29.984Z,2.37
2023-03-16T06:06:30.309Z,2.69
2023-03-16T06:07:30.283Z,2.68
2023-03-16T06:08:30.830Z,2.95
2023-03-16T06:09:31.197Z,3.08
2023-03-16T06:10:31.719Z,3.11
2023-03-16T06:11:31.343Z,3.33
2023-03-16T06:12:32.840Z,3.4
2023-03-16T06:13:32.751Z,3.4
2023-03-16T06:14:33.259Z,3.49
2023-03-16T06:15:33.415Z,3.5
2023-03-16T06:16:34.907Z,3.58
2023-03-16T06:17:35.178Z,3.85
2023-03-16T06:18:36.116Z,4
2023-03-16T06:19:36.320Z,4.21
2023-03-16T06:20:37.328Z,4.27
2023-03-16T06:21:37.430Z,4.25
2023-03-16T06:22:37.517Z,4.27
2023-03-16T06:23:38.148Z,4.43
2023-03-16T06:24:38.542Z,4.46
2023-03-16T06:25:41.239Z,4.43
2023-03-16T06:26:38.899Z,4.48
2023-03-16T06:27:39.532Z,4.36
2023-03-16T06:28:40.504Z,4.36
2023-03-16T06:29:40.746Z,4.32
2023-03-16T06:30:41.720Z,4.28
2023-03-16T06:31:42.831Z,4.2
2023-03-16T06:32:43.723Z,4.25
2023-03-16T06:33:43.579Z,4.2
2023-03-16T06:34:44.504Z,4.21
2023-03-16T06:35:45.388Z,4.13
2023-03-16T06:36:46.040Z,4.22
2023-03-16T06:37:46.702Z,4.24
2023-03-16T06:38:46.702Z,4.28
2023-03-16T06:39:47.628Z,4.42
2023-03-16T06:40:48.133Z,4.61
2023-03-16T06:41:48.818Z,4.67
2023-03-16T06:42:52.342Z,4.89
2023-03-16T06:43:49.976Z,4.79
2023-03-16T06:44:50.889Z,4.79
2023-03-16T06:45:51.119Z,4.84
2023-03-16T06:46:51.530Z,4.76
2023-03-16T06:47:51.777Z,4.79
2023-03-16T06:48:52.092Z,4.9
2023-03-16T06:49:53.077Z,4.79
2023-03-16T06:50:53.646Z,4.76
2023-03-16T06:51:53.860Z,4.84
2023-03-16T06:52:54.812Z,4.82
2023-03-16T06:53:55.363Z,4.9
2023-03-16T06:54:55.030Z,4.95
2023-03-16T06:55:56.336Z,4.92
2023-03-16T06:56:56.823Z,4.87
2023-03-16T06:57:57.269Z,4.84
2023-03-16T06:58:57.775Z,4.84
2023-03-16T06:59:57.400Z,5.12
2023-03-16T07:00:58.571Z,5.51
2023-03-16T07:01:58.759Z,5.9
2023-03-16T07:03:01.080Z,6.34
2023-03-16T07:03:59.959Z,6.7
2023-03-16T07:05:00.757Z,7.21
2023-03-16T07:06:02.185Z,7.51
2023-03-16T07:07:03.127Z,7.96
2023-03-16T07:08:03.834Z,8.38
2023-03-16T07:09:04.209Z,8.71
2023-03-16T07:10:04.445Z,9.11
2023-03-16T07:11:05.667Z,9.33
2023-03-16T07:12:06.161Z,9.69
2023-03-16T07:13:06.708Z,9.88
2023-03-16T07:14:07.356Z,9.91
2023-03-16T07:15:07.321Z,10.09
2023-03-16T07:16:08.251Z,9.92
2023-03-16T07:17:08.688Z,10.02
2023-03-16T07:18:08.655Z,10.15
2023-03-16T07:19:09.148Z,10.21
2023-03-16T07:20:09.080Z,10.17
2023-03-16T07:21:09.634Z,10.23
2023-03-16T07:22:09.526Z,10.21
2023-03-16T07:23:10.222Z,10.31
2023-03-16T07:24:10.676Z,10.25
2023-03-16T07:25:10.613Z,10.24
2023-03-16T07:26:12.272Z,10.24
2023-03-16T07:27:13.232Z,10.53
2023-03-16T07:28:13.178Z,10.65
2023-03-16T07:29:13.563Z,10.58
2023-03-16T07:30:14.786Z,10.76
2023-03-16T07:31:15.452Z,10.79
2023-03-16T07:32:15.915Z,11.05
2023-03-16T07:33:16.590Z,11.41
2023-03-16T07:34:16.840Z,11.65
2023-03-16T07:35:17.815Z,11.8
2023-03-16T07:36:19.038Z,11.78
2023-03-16T07:37:25.850Z,11.68
2023-03-16T07:38:19.937Z,11.63
2023-03-16T07:39:20.224Z,11.91
2023-03-16T07:40:20.549Z,12.17
2023-03-16T07:41:20.556Z,12.54
2023-03-16T07:42:21.876Z,13.09
2023-03-16T07:43:22.853Z,13.36
2023-03-16T07:44:23.215Z,13.57
2023-03-16T07:45:24.162Z,13.68
2023-03-16T07:46:25.108Z,13.76
2023-03-16T07:47:27.196Z,13.86
2023-03-16T07:48:26.154Z,13.85
2023-03-16T07:49:26.811Z,13.98
2023-03-16T07:50:27.854Z,13.97
2023-03-16T07:51:28.194Z,13.98
2023-03-16T07:52:28.188Z,13.86
2023-03-16T07:53:28.620Z,13.8
2023-03-16T07:54:30.196Z,13.64
2023-03-16T07:55:30.412Z,13.36
2023-03-16T07:56:49.462Z,12.94
2023-03-16T07:57:30.701Z,12.88
2023-03-16T07:58:31.264Z,12.66
2023-03-16T07:59:31.523Z,12.35
2023-03-16T08:00:33.169Z,12.17
2023-03-16T08:01:33.666Z,11.88
2023-03-16T08:02:33.505Z,11.56
2023-03-16T08:03:34.812Z,11.34
2023-03-16T08:04:35.611Z,11.07
2023-03-16T08:05:35.953Z,10.95
2023-03-16T08:06:37.357Z,10.95
2023-03-16T08:07:37.868Z,10.86
2023-03-16T08:08:38.843Z,10.95
2023-03-16T08:09:38.816Z,10.82
2023-03-16T08:10:40.334Z,10.89
2023-03-16T08:11:40.294Z,10.67
2023-03-16T08:12:40.833Z,10.64
2023-03-16T08:13:41.708Z,10.61
2023-03-16T08:14:42.934Z,10.58
2023-03-16T08:15:43.318Z,10.92
2023-03-16T08:16:43.938Z,11.2
2023-03-16T08:17:44.904Z,11.58
2023-03-16T08:18:46.143Z,12.15
2023-03-16T08:19:46.145Z,12.57
2023-03-16T08:20:47.391Z,13.08
2023-03-16T08:22:06.357Z,13.43
2023-03-16T08:22:48.588Z,13.64
2023-03-16T08:23:48.845Z,13.64
2023-03-16T08:24:49.396Z,13.65
2023-03-16T08:25:49.652Z,13.78
2023-03-16T08:26:50.306Z,13.86
2023-03-16T08:27:50.585Z,14
2023-03-16T08:28:50.581Z,14.04
2023-03-16T08:29:50.887Z,14.05
2023-03-16T08:30:51.992Z,13.8
2023-03-16T08:31:52.358Z,13.8
2023-03-16T08:32:52.597Z,13.61
2023-03-16T08:33:52.779Z,13.52
2023-03-16T08:34:54.007Z,13.36
2023-03-16T08:35:54.671Z,13.43
2023-03-16T08:36:54.701Z,13.28
2023-03-16T08:37:55.046Z,13.24
2023-03-16T08:39:12.482Z,13.26
2023-03-16T08:39:56.044Z,13.28
2023-03-16T08:40:56.264Z,13.21
2023-03-16T08:41:57.263Z,13.13
2023-03-16T08:42:57.224Z,13.13
2023-03-16T08:43:58.454Z,12.98
2023-03-16T08:44:58.672Z,12.65
2023-03-16T08:45:58.957Z,12.28
2023-03-16T08:46:59.783Z,12.15
2023-03-16T08:47:59.780Z,11.88
2023-03-16T08:49:00.037Z,11.63
2023-03-16T08:50:00.709Z,11.52
2023-03-16T08:51:01.251Z,11.44
2023-03-16T08:52:01.548Z,11.35
2023-03-16T08:53:02.914Z,11.02
2023-03-16T08:54:03.193Z,10.8
2023-03-16T08:55:09.268Z,10.59
2023-03-16T08:56:03.593Z,10.65
2023-03-16T08:57:04.667Z,10.58
2023-03-16T08:58:04.667Z,10.68
2023-03-16T08:59:04.926Z,10.75
2023-03-16T09:00:05.976Z,10.89
2023-03-16T09:01:08.156Z,11.07
2023-03-16T09:02:07.585Z,11.22
2023-03-16T09:03:07.599Z,11.41
2023-03-16T09:04:08.794Z,11.74
2023-03-16T09:05:09.410Z,12.05
2023-03-16T09:06:09.944Z,12.33
2023-03-16T09:07:15.964Z,12.81
2023-03-16T09:08:17.235Z,13.33
2023-03-16T09:09:17.966Z,13.57
2023-03-16T09:10:18.364Z,13.91
2023-03-16T09:11:19.034Z,14.45
2023-03-16T09:12:19.976Z,14.79
2023-03-16T09:13:20.924Z,15.12
2023-03-16T09:14:21.423Z,15.19
2023-03-16T09:15:21.554Z,15.27
2023-03-16T09:16:22.206Z,15.39
2023-03-16T09:17:22.186Z,15.23
2023-03-16T09:18:23.417Z,15.08
2023-03-16T09:19:24.361Z,14.56
2023-03-16T09:20:33.932Z,14.3
2023-03-16T09:21:25.575Z,14.12
2023-03-16T09:22:26.040Z,14.07
2023-03-16T09:23:25.998Z,13.85
2023-03-16T09:24:26.238Z,13.71
2023-03-16T09:25:26.846Z,13.57
2023-03-16T09:26:27.769Z,13.55
2023-03-16T09:27:27.806Z,13.57
2023-03-16T09:28:28.635Z,13.54
2023-03-16T09:29:29.610Z,13.45
2023-03-16T09:30:31.776Z,13.33
2023-03-16T09:31:31.236Z,13.27
2023-03-16T09:32:31.795Z,12.98
2023-03-16T09:33:32.825Z,12.86
2023-03-16T09:34:34.512Z,12.8
2023-03-16T09:35:36.350Z,12.9
2023-03-16T09:36:34.455Z,13.02
2023-03-16T09:38:06.701Z,13.08
2023-03-16T09:38:35.958Z,13.01
2023-03-16T09:39:35.926Z,13.05
2023-03-16T09:40:36.712Z,13.05
2023-03-16T09:41:37.279Z,13.23
2023-03-16T09:42:37.834Z,13.23
2023-03-16T09:43:37.767Z,13.43
2023-03-16T09:44:38.483Z,13.42
2023-03-16T09:45:39.276Z,13.49
2023-03-16T09:46:41.462Z,13.7
2023-03-16T09:47:40.107Z,14
2023-03-16T09:48:40.386Z,14.26
2023-03-16T09:49:40.610Z,14.4
2023-03-16T09:50:54.584Z,14.48
2023-03-16T09:51:41.576Z,14.62
2023-03-16T09:52:42.139Z,14.73
2023-03-16T09:53:42.689Z,14.96
2023-03-16T09:54:42.946Z,14.93
2023-03-16T09:55:42.610Z,14.9
2023-03-16T09:56:43.897Z,14.85
2023-03-16T09:57:45.076Z,14.97
2023-03-16T09:58:45.711Z,15.17
2023-03-16T09:59:45.662Z,15.36
2023-03-16T10:00:46.721Z,15.44
2023-03-16T10:01:47.186Z,15.59
2023-03-16T10:02:48.440Z,15.84
2023-03-16T10:03:48.818Z,15.98
2023-03-16T10:04:50.986Z,16.41
2023-03-16T10:05:50.066Z,16.68
2023-03-16T10:06:51.353Z,16.84
2023-03-16T10:07:52.124Z,16.97
2023-03-16T10:08:53.116Z,17.19
2023-03-16T10:09:53.593Z,17.16
2023-03-16T10:10:53.916Z,17.1
2023-03-16T10:11:54.556Z,17.2
2023-03-16T10:12:54.852Z,17.41
2023-03-16T10:13:55.068Z,17.53
2023-03-16T10:14:55.407Z,17.76
2023-03-16T10:15:55.581Z,18
2023-03-16T10:16:56.902Z,18.37
2023-03-16T10:17:57.242Z,18.58
2023-03-16T10:18:57.775Z,18.78
2023-03-16T10:19:58.318Z,18.88
2023-03-16T10:20:59.064Z,18.73
2023-03-16T10:22:00.366Z,18.68
2023-03-16T10:23:00.623Z,18.67
2023-03-16T10:24:01.163Z,18.66
2023-03-16T10:25:01.841Z,18.67
2023-03-16T10:26:02.876Z,18.57
2023-03-16T10:27:03.470Z,18.6
2023-03-16T10:28:03.761Z,18.68
2023-03-16T10:29:04.576Z,18.88
2023-03-16T10:30:04.542Z,19.17
2023-03-16T10:31:04.790Z,19.29
2023-03-16T10:32:05.600Z,19.49
2023-03-16T10:33:05.695Z,19.67
2023-03-16T10:34:06.235Z,19.67
2023-03-16T10:35:06.909Z,19.67
2023-03-16T10:36:08.155Z,19.48
2023-03-16T10:37:08.611Z,19.42
2023-03-16T10:38:09.465Z,19.42
2023-03-16T10:39:10.103Z,19.44
2023-03-16T10:40:10.736Z,19.41
2023-03-16T10:41:10.806Z,19.26
2023-03-16T10:42:11.397Z,19.26
2023-03-16T10:43:12.019Z,19.04
2023-03-16T10:44:12.827Z,19.07
2023-03-16T10:45:13.784Z,19.2
2023-03-16T10:46:15.739Z,19.19
2023-03-16T10:47:14.603Z,19.12
2023-03-16T10:48:14.536Z,18.86
2023-03-16T10:49:14.500Z,18.74
2023-03-16T10:50:15.760Z,18.82
2023-03-16T10:51:15.671Z,18.83
2023-03-16T10:52:16.673Z,18.79
2023-03-16T10:53:17.277Z,18.74
2023-03-16T10:54:17.874Z,18.79
2023-03-16T10:55:19.144Z,18.92
2023-03-16T10:56:19.628Z,18.97
2023-03-16T10:57:19.731Z,19.08
2023-03-16T10:58:20.413Z,18.88
2023-03-16T10:59:20.530Z,18.67
2023-03-16T11:00:20.516Z,18.41
2023-03-16T11:01:22.132Z,18.27
2023-03-16T11:02:22.561Z,18.06
2023-03-16T11:03:23.119Z,18.05
2023-03-16T11:04:24.248Z,18
2023-03-16T11:05:24.583Z,17.78
2023-03-16T11:06:25.546Z,17.57
2023-03-16T11:07:26.068Z,17.44
2023-03-16T11:08:26.917Z,17.38
2023-03-16T11:09:27.115Z,17.23
2023-03-16T11:10:28.078Z,17.19
2023-03-16T11:11:29.346Z,17.23
2023-03-16T11:12:29.920Z,17.07
2023-03-16T11:13:30.186Z,17.01
2023-03-16T11:14:30.740Z,16.8
2023-03-16T11:15:32.304Z,16.73
2023-03-16T11:16:32.290Z,16.62
2023-03-16T11:17:32.196Z,16.61
2023-03-16T11:18:32.679Z,16.54
2023-03-16T11:19:33.355Z,16.41
2023-03-16T11:20:34.011Z,16.31
2023-03-16T11:21:34.245Z,16.18
2023-03-16T11:22:34.760Z,16.08
2023-03-16T11:23:35.393Z,16.05
2023-03-16T11:24:35.652Z,16.08
2023-03-16T11:25:36.482Z,16.02
2023-03-16T11:26:36.756Z,15.99
2023-03-16T11:27:37.536Z,16
2023-03-16T11:28:38.194Z,16.03
2023-03-16T11:29:38.929Z,16.08
2023-03-16T11:30:39.155Z,16.17
2023-03-16T11:31:39.349Z,16.26
2023-03-16T11:32:40.607Z,16.17
2023-03-16T11:33:40.766Z,16.08
2023-03-16T11:34:41.430Z,15.9
2023-03-16T11:35:59.395Z,15.78
2023-03-16T11:36:42.861Z,15.78
2023-03-16T11:37:43.816Z,15.63
2023-03-16T11:38:44.922Z,15.75
2023-03-16T11:39:45.460Z,15.63
2023-03-16T11:40:45.976Z,15.57
2023-03-16T11:41:46.280Z,15.43
2023-03-16T11:42:46.269Z,15.3
2023-03-16T11:43:46.945Z,15.32
2023-03-16T11:44:50.988Z,15.35
2023-03-16T11:45:48.814Z,15.14
2023-03-16T11:46:49.667Z,15.04
2023-03-16T11:47:50.594Z,15.11
2023-03-16T11:48:50.971Z,15.15
2023-03-16T11:49:51.207Z,15.17
2023-03-16T11:50:51.729Z,15.05
2023-03-16T11:51:52.009Z,15.04
2023-03-16T11:52:52.234Z,15.07
2023-03-16T11:53:53.499Z,15.05
2023-03-16T11:54:54.025Z,15.19
2023-03-16T11:55:54.532Z,15.08
2023-03-16T11:56:54.861Z,15.11
2023-03-16T11:57:57.511Z,15.14
2023-03-16T11:58:55.547Z,15.17
2023-03-16T12:00:06.777Z,15.17
2023-03-16T12:00:57.010Z,15.29
2023-03-16T12:02:06.541Z,15.14
2023-03-16T12:02:57.882Z,15.19
2023-03-16T12:03:58.465Z,15.23
2023-03-16T12:04:58.798Z,15.14
2023-03-16T12:06:00.812Z,15.15
2023-03-16T12:07:00.357Z,15.08
2023-03-16T12:08:00.902Z,15.18
2023-03-16T12:09:01.577Z,15.32
2023-03-16T12:10:01.786Z,15.32
2023-03-16T12:11:01.738Z,15.43
2023-03-16T12:12:01.984Z,15.39
2023-03-16T12:13:02.581Z,15.32
2023-03-16T12:14:02.555Z,15.33
2023-03-16T12:15:03.229Z,15.29
2023-03-16T12:16:04.319Z,15.41
2023-03-16T12:17:06.916Z,15.43
2023-03-16T12:18:04.872Z,15.47
2023-03-16T12:19:05.346Z,15.37
2023-03-16T12:20:05.953Z,15.6
2023-03-16T12:21:06.478Z,15.69
2023-03-16T12:22:06.708Z,15.65
2023-03-16T12:23:07.371Z,15.6
2023-03-16T12:24:08.639Z,15.5
2023-03-16T12:25:09.635Z,15.43
2023-03-16T12:26:09.851Z,15.41
2023-03-16T12:27:09.550Z,15.32
2023-03-16T12:28:11.169Z,15.39
2023-03-16T12:29:11.642Z,15.33
2023-03-16T12:30:12.599Z,15.43
2023-03-16T12:31:12.852Z,15.43
2023-03-16T12:32:13.861Z,15.39
2023-03-16T12:33:14.145Z,15.43
2023-03-16T12:34:15.088Z,15.52
2023-03-16T12:35:17.517Z,15.59
2023-03-16T12:36:16.417Z,15.67
2023-03-16T12:37:17.245Z,15.7
2023-03-16T12:38:17.695Z,15.76
2023-03-16T12:39:18.716Z,15.81
2023-03-16T12:40:19.756Z,15.84
2023-03-16T12:41:23.743Z,15.9
2023-03-16T12:42:21.316Z,15.87
2023-03-16T12:43:21.337Z,15.84
2023-03-16T12:44:22.842Z,15.87
2023-03-16T12:45:23.511Z,16.05
2023-03-16T12:46:24.098Z,16.17
2023-03-16T12:47:24.354Z,16.32
2023-03-16T12:48:24.565Z,16.31
2023-03-16T12:49:25.639Z,16.31
2023-03-16T12:50:26.031Z,16.28
2023-03-16T12:51:25.984Z,16.34
2023-03-16T12:52:26.992Z,16.43
2023-03-16T12:53:26.650Z,16.37
2023-03-16T12:54:27.937Z,16.41
2023-03-16T12:55:29.787Z,16.29
2023-03-16T12:56:28.185Z,16.17
2023-03-16T12:57:29.431Z,16.18
2023-03-16T12:58:29.769Z,16.08
2023-03-16T12:59:30.306Z,16.13
2023-03-16T13:00:30.890Z,16.31
2023-03-16T13:01:31.339Z,16.28
2023-03-16T13:02:32.052Z,16.39
2023-03-16T13:03:32.188Z,16.39
2023-03-16T13:04:32.928Z,16.32
2023-03-16T13:05:34.053Z,16.36
2023-03-16T13:06:36.589Z,16.28
2023-03-16T13:07:34.487Z,16.17
2023-03-16T13:08:34.724Z,16.06
2023-03-16T13:09:35.810Z,16.17
2023-03-16T13:10:36.934Z,16.36
2023-03-16T13:11:36.990Z,16.41
2023-03-16T13:12:37.288Z,16.54
2023-03-16T13:13:38.129Z,16.51
2023-03-16T13:14:38.370Z,16.59
2023-03-16T13:15:39.066Z,16.58
2023-03-16T13:16:40.538Z,16.62
2023-03-16T13:17:44.091Z,16.61